Time;durP1;ratioP1;P1;durP2;ratioP2;P2;SDS_P1;SDS_P2;PMS_P1;PMS_P2;Temp;Humidity;BMP_temperature;BMP_pressure;BME280_temperature;BME280_humidity;BME280_pressure;Samples;Min_cycle;Max_cycle;Signal;HPM_P1;HPM_P2
2023/05/29 00:01:39;;;;;;;0.57;0.57;;;;;;;18.82;43.98;101459.03;5158676;28;20037;-85
2023/05/29 00:04:30;;;;;;;0.40;0.40;;;;;;;18.90;44.32;101461.31;5174982;28;20033;-86
2023/05/29 00:07:21;;;;;;;0.43;0.43;;;;;;;18.52;45.38;101462.25;5168107;28;20041;-86
2023/05/29 00:10:12;;;;;;;0.40;0.40;;;;;;;18.47;45.25;101465.16;5171814;28;20029;-87
2023/05/29 00:13:03;;;;;;;0.68;0.68;;;;;;;18.44;44.84;101475.94;5168242;28;20155;-87
2023/05/29 00:15:54;;;;;;;0.77;0.45;;;;;;;18.50;44.88;101466.81;5167831;28;20503;-86
2023/05/29 00:18:47;;;;;;;0.20;0.20;;;;;;;18.55;44.45;101470.94;5167961;28;20021;-86
2023/05/29 00:21:38;;;;;;;0.30;0.30;;;;;;;17.94;45.63;101467.59;5169615;28;20377;-87
2023/05/29 00:24:29;;;;;;;0.28;0.28;;;;;;;18.25;44.50;101465.34;5180417;28;20120;-86
2023/05/29 00:27:20;;;;;;;1.13;0.75;;;;;;;18.28;44.59;101461.66;5170680;28;20037;-86
2023/05/29 00:30:11;;;;;;;0.90;0.60;;;;;;;17.90;45.30;101470.47;5170477;28;20104;-86
2023/05/29 00:33:02;;;;;;;1.52;1.27;;;;;;;18.07;44.48;101472.38;5183932;28;20022;-85
2023/05/29 00:35:52;;;;;;;0.30;0.30;;;;;;;18.08;44.56;101477.63;5163203;28;20029;-86
2023/05/29 00:38:43;;;;;;;0.85;0.28;;;;;;;18.27;44.10;101475.88;5164315;28;20049;-86
2023/05/29 00:41:34;;;;;;;0.20;0.20;;;;;;;18.25;43.90;101479.47;5179636;28;20098;-87
2023/05/29 00:44:25;;;;;;;0.75;0.75;;;;;;;18.20;44.02;101483.28;5170495;28;20024;-85
2023/05/29 00:47:16;;;;;;;0.28;0.28;;;;;;;18.23;43.78;101483.97;5169358;28;20093;-86
2023/05/29 00:50:08;;;;;;;0.30;0.30;;;;;;;18.29;43.79;101495.28;5184348;28;20021;-85
2023/05/29 00:53:01;;;;;;;0.60;0.40;;;;;;;17.74;45.06;101484.44;5178870;28;20044;-85
2023/05/29 00:55:52;;;;;;;0.40;0.40;;;;;;;17.58;45.72;101481.59;5183076;28;20025;-86
2023/05/29 00:58:43;;;;;;;0.20;0.20;;;;;;;17.83;44.98;101485.81;5187707;28;20107;-86
2023/05/29 01:01:35;;;;;;;2.92;0.88;;;;;;;17.46;45.92;101495.44;5171622;28;20033;-86
2023/05/29 01:04:27;;;;;;;0.30;0.30;;;;;;;17.52;45.46;101503.09;5183128;28;20112;-86
2023/05/29 01:07:18;;;;;;;0.30;0.30;;;;;;;17.66;45.38;101497.19;5171341;28;20065;-86
2023/05/29 01:10:09;;;;;;;0.20;0.20;;;;;;;17.54;46.01;101500.38;5187405;28;20451;-86
2023/05/29 01:13:11;;;;;;;0.50;0.50;;;;;;;17.69;45.25;101501.50;5168694;28;20105;-86
2023/05/29 01:16:26;;;;;;;0.20;0.20;;;;;;;17.40;45.93;101504.50;5172009;28;20064;-85
2023/05/29 01:19:55;;;;;;;3.42;1.20;;;;;;;17.69;45.08;101504.16;5180070;28;20677;-85
2023/05/29 01:23:17;;;;;;;0.20;0.20;;;;;;;17.63;45.10;101507.94;5182197;28;20465;-86
2023/05/29 01:26:10;;;;;;;0.38;0.38;;;;;;;17.45;46.51;101515.78;5199767;28;20034;-85
2023/05/29 01:29:06;;;;;;;0.32;0.32;;;;;;;17.17;47.27;101508.13;5169169;28;20243;-86
2023/05/29 01:31:58;;;;;;;0.30;0.30;;;;;;;16.86;49.07;101513.84;5168440;28;20084;-86
2023/05/29 01:34:49;;;;;;;0.45;0.45;;;;;;;17.24;46.95;101514.06;5182890;28;20060;-85
2023/05/29 01:37:40;;;;;;;0.32;0.32;;;;;;;17.44;46.75;101510.53;5198335;28;20033;-86
2023/05/29 01:40:31;;;;;;;0.85;0.85;;;;;;;17.04;48.03;101518.38;5170934;28;20037;-85
2023/05/29 01:43:22;;;;;;;0.75;0.50;;;;;;;17.23;46.81;101522.94;5175495;28;20037;-85
2023/05/29 01:46:14;;;;;;;0.45;0.45;;;;;;;17.03;47.91;101527.25;5182814;28;20034;-86
2023/05/29 01:49:05;;;;;;;1.05;1.05;;;;;;;16.66;49.68;101534.88;5180655;28;20022;-87
2023/05/29 01:51:56;;;;;;;0.70;0.70;;;;;;;16.62;49.49;101528.00;5165207;28;20041;-86
2023/05/29 01:54:47;;;;;;;0.30;0.30;;;;;;;16.28;51.52;101544.34;5168898;28;20374;-85
2023/05/29 01:57:38;;;;;;;0.43;0.43;;;;;;;16.57;50.12;101539.69;5168087;28;20124;-85
2023/05/29 02:00:30;;;;;;;0.50;0.50;;;;;;;16.06;52.47;101542.50;5181173;28;20116;-86
2023/05/29 02:03:20;;;;;;;0.50;0.50;;;;;;;16.31;50.94;101537.16;5183584;28;20125;-85
2023/05/29 02:06:11;;;;;;;0.20;0.20;;;;;;;16.46;50.29;101543.63;5171879;28;20041;-85
2023/05/29 02:09:02;;;;;;;0.30;0.30;;;;;;;16.40;50.52;101553.63;5191521;28;20038;-86
2023/05/29 02:11:53;;;;;;;0.20;0.20;;;;;;;16.05;52.37;101548.69;5174431;28;20049;-86
2023/05/29 02:14:44;;;;;;;3.33;2.00;;;;;;;16.32;50.02;101545.94;5165486;28;20134;-85
2023/05/29 02:17:35;;;;;;;0.20;0.20;;;;;;;15.82;53.89;101552.19;5181900;28;20049;-86
2023/05/29 02:20:26;;;;;;;0.50;0.30;;;;;;;16.01;53.31;101547.94;5178368;28;20049;-87
2023/05/29 02:23:17;;;;;;;0.35;0.35;;;;;;;16.09;52.15;101554.75;5167533;28;20037;-86
2023/05/29 02:26:08;;;;;;;0.45;0.30;;;;;;;16.12;52.15;101554.63;5172983;28;20113;-86
2023/05/29 02:28:58;;;;;;;0.47;0.47;;;;;;;15.86;53.87;101565.28;5184836;28;20084;-86
2023/05/29 02:31:49;;;;;;;1.52;1.25;;;;;;;15.72;53.91;101557.78;5187519;28;20037;-85
2023/05/29 02:34:40;;;;;;;0.80;0.80;;;;;;;16.15;51.97;101551.88;5188438;28;20053;-86
2023/05/29 02:37:31;;;;;;;1.15;0.68;;;;;;;16.28;51.13;101558.44;5182095;28;20091;-85
2023/05/29 02:40:22;;;;;;;0.40;0.40;;;;;;;16.17;52.51;101563.25;5177679;28;20559;-86
2023/05/29 02:43:14;;;;;;;0.40;0.40;;;;;;;15.65;54.14;101565.97;5187204;28;20030;-86
2023/05/29 02:46:05;;;;;;;0.40;0.40;;;;;;;15.70;52.85;101570.19;5186485;28;20026;-85
2023/05/29 02:48:55;;;;;;;0.47;0.47;;;;;;;15.93;52.48;101568.53;5187684;28;20064;-86
2023/05/29 02:51:46;;;;;;;0.60;0.60;;;;;;;15.99;52.42;101570.97;5187494;28;20121;-86
2023/05/29 02:54:37;;;;;;;0.98;0.90;;;;;;;16.02;51.80;101570.00;5197779;28;20040;-86
2023/05/29 02:57:28;;;;;;;1.27;0.98;;;;;;;15.81;53.09;101571.59;5166944;28;20419;-86
2023/05/29 03:00:19;;;;;;;0.82;0.82;;;;;;;15.87;52.14;101572.25;5169619;28;20029;-86
2023/05/29 03:03:09;;;;;;;0.35;0.35;;;;;;;15.51;53.99;101580.56;5166053;28;20680;-86
2023/05/29 03:06:00;;;;;;;0.73;0.73;;;;;;;15.28;54.79;101573.38;5183825;28;20061;-86
2023/05/29 03:08:52;;;;;;;1.15;1.05;;;;;;;15.54;53.49;101584.88;5184179;28;20068;-85
2023/05/29 03:11:44;;;;;;;4.65;1.50;;;;;;;15.42;52.90;101579.06;5160815;28;20038;-86
2023/05/29 03:14:35;;;;;;;0.30;0.30;;;;;;;15.55;53.16;101576.03;5187638;28;20044;-86
2023/05/29 03:17:27;;;;;;;0.40;0.40;;;;;;;15.60;52.57;101579.38;5173984;28;20034;-86
2023/05/29 03:20:18;;;;;;;2.03;0.50;;;;;;;15.25;53.31;101579.66;5173878;28;20044;-86
2023/05/29 03:23:09;;;;;;;0.20;0.20;;;;;;;15.47;52.08;101575.44;5166038;28;20030;-86
2023/05/29 03:26:01;;;;;;;0.95;0.65;;;;;;;15.54;51.79;101580.44;5182189;28;20029;-87
2023/05/29 03:28:52;;;;;;;3.03;0.75;;;;;;;15.26;53.27;101583.16;5181475;28;20022;-85
2023/05/29 03:31:43;;;;;;;0.63;0.63;;;;;;;14.96;54.11;101585.88;5198090;28;20038;-85
2023/05/29 03:34:34;;;;;;;0.43;0.40;;;;;;;15.16;52.86;101589.66;5167265;28;20439;-85
2023/05/29 03:37:24;;;;;;;0.82;0.82;;;;;;;14.54;54.93;101578.31;5183948;28;20089;-86
2023/05/29 03:40:15;;;;;;;0.20;0.20;;;;;;;14.99;53.52;101574.34;5174088;28;20117;-85
2023/05/29 03:43:06;;;;;;;0.30;0.30;;;;;;;14.71;54.44;101577.88;5176420;28;20057;-86
2023/05/29 03:45:57;;;;;;;0.75;0.75;;;;;;;14.84;53.27;101578.31;5191951;28;20030;-86
2023/05/29 03:48:47;;;;;;;1.52;0.57;;;;;;;15.08;52.08;101577.53;5182603;28;20033;-86
2023/05/29 03:51:38;;;;;;;0.63;0.55;;;;;;;14.99;52.27;101582.25;5166098;28;20120;-86
2023/05/29 03:54:29;;;;;;;12.50;2.13;;;;;;;14.76;53.11;101574.16;5186261;28;20040;-86
2023/05/29 03:57:20;;;;;;;0.40;0.40;;;;;;;14.82;52.56;101585.44;5172590;28;20040;-86
2023/05/29 04:00:11;;;;;;;0.60;0.60;;;;;;;14.81;53.78;101583.72;5170092;28;21001;-86
2023/05/29 04:03:03;;;;;;;0.47;0.47;;;;;;;14.83;52.71;101592.47;5166864;28;20042;-86
2023/05/29 04:05:55;;;;;;;1.52;1.42;;;;;;;14.76;53.55;101597.91;5169150;28;20560;-85
2023/05/29 04:08:46;;;;;;;2.83;2.05;;;;;;;14.96;52.51;101591.16;5199124;28;20037;-86
2023/05/29 04:11:38;;;;;;;0.50;0.50;;;;;;;14.70;53.42;101603.41;5170451;28;20040;-86
2023/05/29 04:14:29;;;;;;;0.45;0.45;;;;;;;14.64;52.72;101608.84;5183694;28;20021;-86
2023/05/29 04:17:20;;;;;;;0.55;0.55;;;;;;;14.83;52.06;101597.75;5168720;28;20048;-85
2023/05/29 04:20:11;;;;;;;4.30;0.82;;;;;;;14.78;52.45;101609.31;5168221;28;20728;-85
2023/05/29 04:23:02;;;;;;;0.57;0.57;;;;;;;14.61;53.28;101611.56;5165204;28;20042;-85
2023/05/29 04:25:52;;;;;;;0.55;0.40;;;;;;;14.54;52.96;101610.03;5177562;28;20048;-85
2023/05/29 04:28:43;;;;;;;0.47;0.47;;;;;;;14.74;52.72;101615.63;5183558;28;20029;-85
2023/05/29 04:31:36;;;;;;;3.10;2.05;;;;;;;14.76;52.35;101620.84;5172194;28;20042;-86
2023/05/29 04:34:27;;;;;;;0.33;0.33;;;;;;;14.60;53.12;101618.63;5164087;28;20034;-86
2023/05/29 04:37:18;;;;;;;2.00;1.27;;;;;;;14.67;52.47;101615.84;5179006;28;20346;-86
2023/05/29 04:40:10;;;;;;;0.30;0.30;;;;;;;14.31;54.83;101622.13;5169570;28;20100;-86
2023/05/29 04:43:01;;;;;;;3.85;0.82;;;;;;;14.29;54.52;101626.56;5171523;28;20045;-85
2023/05/29 04:45:53;;;;;;;1.40;1.00;;;;;;;14.21;54.29;101626.81;5181002;28;20107;-84
2023/05/29 04:48:44;;;;;;;0.70;0.70;;;;;;;14.30;54.15;101631.78;5190244;28;20024;-85
2023/05/29 04:51:36;;;;;;;1.40;0.82;;;;;;;14.43;54.49;101628.81;5172164;28;20538;-85
2023/05/29 04:54:26;;;;;;;1.75;1.50;;;;;;;14.38;54.29;101636.00;5167099;28;20045;-85
2023/05/29 04:57:17;;;;;;;1.00;1.00;;;;;;;14.40;54.52;101642.97;5174223;28;20083;-84
2023/05/29 05:00:11;;;;;;;0.30;0.30;;;;;;;14.47;53.50;101647.16;5193681;28;20033;-85
2023/05/29 05:03:02;;;;;;;;;;;;;;;14.03;56.13;101628.16;5166925;28;20033;-85
2023/05/29 05:05:53;;;;;;;1.63;0.95;;;;;;;13.91;56.24;101631.97;5181898;28;20860;-85
2023/05/29 05:08:44;;;;;;;14.35;1.70;;;;;;;13.91;57.06;101646.97;5170050;28;20396;-86
2023/05/29 05:11:34;;;;;;;0.98;0.75;;;;;;;14.16;54.86;101647.16;5188030;28;20077;-85
2023/05/29 05:14:25;;;;;;;1.55;0.50;;;;;;;13.95;56.32;101645.97;5198444;28;20031;-85
2023/05/29 05:17:16;;;;;;;0.20;0.20;;;;;;;13.99;55.54;101658.19;5168051;28;20029;-86
2023/05/29 05:20:08;;;;;;;0.22;0.22;;;;;;;13.98;56.09;101651.16;5184269;28;20021;-85
2023/05/29 05:22:59;;;;;;;2.35;0.88;;;;;;;14.27;54.84;101663.56;5181437;28;20508;-86
2023/05/29 05:25:50;;;;;;;0.20;0.20;;;;;;;14.14;56.27;101662.16;5164081;28;20039;-85
2023/05/29 05:28:41;;;;;;;1.27;1.17;;;;;;;14.02;56.58;101673.91;5168871;28;20033;-85
2023/05/29 05:31:32;;;;;;;0.57;0.57;;;;;;;13.80;57.34;101663.06;5198586;28;20052;-85
2023/05/29 05:34:23;;;;;;;0.30;0.30;;;;;;;13.86;57.50;101670.81;5186096;28;20022;-84
2023/05/29 05:37:13;;;;;;;0.20;0.20;;;;;;;13.87;57.62;101667.28;5178777;28;20038;-85
2023/05/29 05:40:06;;;;;;;0.52;0.52;;;;;;;13.86;57.55;101673.47;5167308;28;20022;-85
2023/05/29 05:42:57;;;;;;;14.23;2.08;;;;;;;13.74;58.59;101674.63;5164224;28;20042;-84
2023/05/29 05:45:48;;;;;;;1.20;1.20;;;;;;;13.90;57.30;101667.19;5167912;28;20025;-85
2023/05/29 05:48:40;;;;;;;0.40;0.40;;;;;;;13.65;58.22;101672.22;5179374;28;20064;-85
2023/05/29 05:51:31;;;;;;;1.55;0.77;;;;;;;13.68;58.58;101669.50;5177299;28;20041;-86
2023/05/29 05:54:22;;;;;;;1.85;0.93;;;;;;;13.69;58.05;101665.97;5183560;28;20033;-85
2023/05/29 05:57:13;;;;;;;1.33;0.90;;;;;;;13.72;58.16;101657.97;5182012;28;20076;-84
2023/05/29 06:00:08;;;;;;;0.63;0.63;;;;;;;13.52;59.26;101661.13;5168045;28;20672;-85
2023/05/29 06:03:00;;;;;;;0.30;0.30;;;;;;;13.75;58.04;101660.56;5169679;28;20610;-85
2023/05/29 06:05:52;;;;;;;1.92;0.63;;;;;;;13.88;56.92;101666.38;5184732;28;20501;-85
2023/05/29 06:08:43;;;;;;;0.40;0.40;;;;;;;13.96;57.82;101674.06;5171367;28;20101;-85
2023/05/29 06:11:34;;;;;;;0.35;0.35;;;;;;;13.91;57.25;101673.34;5172125;28;20553;-85
2023/05/29 06:14:25;;;;;;;1.40;1.27;;;;;;;13.91;57.78;101675.97;5188962;28;20037;-86
2023/05/29 06:17:16;;;;;;;0.88;0.50;;;;;;;13.93;57.86;101672.38;5170737;28;20305;-86
2023/05/29 06:20:13;;;;;;;0.55;0.55;;;;;;;13.98;57.66;101683.69;5174854;28;20068;-85
2023/05/29 06:23:04;;;;;;;0.75;0.75;;;;;;;13.95;57.36;101672.34;5164335;28;20038;-85
2023/05/29 06:25:55;;;;;;;1.08;1.00;;;;;;;14.07;57.17;101677.31;5169682;28;20059;-86
2023/05/29 06:28:46;;;;;;;0.55;0.55;;;;;;;13.96;57.47;101682.00;5187219;28;20025;-85
2023/05/29 06:31:36;;;;;;;1.30;1.23;;;;;;;14.19;56.94;101673.47;5179742;28;20506;-84
2023/05/29 06:34:27;;;;;;;0.85;0.82;;;;;;;14.10;57.30;101687.75;5190115;28;20072;-85
2023/05/29 06:37:18;;;;;;;0.50;0.50;;;;;;;14.19;57.25;101670.84;5175343;28;20043;-86
2023/05/29 06:40:10;;;;;;;1.27;1.05;;;;;;;14.31;56.69;101674.91;5179904;28;20053;-86
2023/05/29 06:43:01;;;;;;;2.33;1.50;;;;;;;14.19;57.26;101680.50;5184911;28;20100;-86
2023/05/29 06:45:51;;;;;;;5.50;2.00;;;;;;;14.35;57.63;101681.81;5201121;28;20033;-86
2023/05/29 06:48:42;;;;;;;0.47;0.47;;;;;;;14.50;55.96;101690.25;5202594;28;20034;-87
2023/05/29 06:51:33;;;;;;;4.63;0.77;;;;;;;14.38;57.66;101692.31;5187222;28;20038;-87
2023/05/29 06:54:24;;;;;;;0.45;0.45;;;;;;;14.50;57.27;101693.75;5182328;28;20123;-87
2023/05/29 06:57:15;;;;;;;0.60;0.60;;;;;;;14.57;56.27;101684.72;5186281;28;20040;-86
2023/05/29 07:00:07;;;;;;;1.52;1.42;;;;;;;14.68;56.17;101689.75;5179361;28;20053;-87
2023/05/29 07:02:58;;;;;;;1.55;1.40;;;;;;;14.75;56.76;101695.72;5167108;28;20164;-86
2023/05/29 07:05:49;;;;;;;1.42;1.33;;;;;;;14.70;57.12;101690.56;5187080;28;20080;-86
2023/05/29 07:08:39;;;;;;;0.43;0.43;;;;;;;14.67;56.82;101688.00;5172869;28;20033;-86
2023/05/29 07:11:30;;;;;;;0.55;0.55;;;;;;;14.55;57.15;101680.41;5177589;28;20049;-84
2023/05/29 07:14:21;;;;;;;0.50;0.50;;;;;;;14.79;56.20;101679.72;5169812;28;20040;-83
2023/05/29 07:17:12;;;;;;;3.53;0.55;;;;;;;14.94;55.07;101675.78;5192154;28;20559;-87
2023/05/29 07:20:07;;;;;;;0.22;0.22;;;;;;;14.89;55.89;101672.38;5173223;28;20044;-85
2023/05/29 07:22:58;;;;;;;2.03;0.68;;;;;;;14.92;56.02;101676.72;5174101;28;20623;-83
2023/05/29 07:25:48;;;;;;;0.75;0.75;;;;;;;14.79;57.12;101677.09;5190541;28;20121;-83
2023/05/29 07:28:39;;;;;;;0.20;0.20;;;;;;;14.90;56.17;101678.56;5188663;28;20041;-85
2023/05/29 07:31:30;;;;;;;0.60;0.60;;;;;;;14.93;56.01;101683.72;5185661;28;20037;-83
2023/05/29 07:34:21;;;;;;;0.30;0.30;;;;;;;15.13;55.55;101680.47;5168552;28;20029;-85
2023/05/29 07:37:12;;;;;;;0.40;0.40;;;;;;;15.16;55.92;101684.84;5172203;28;20033;-85
2023/05/29 07:40:07;;;;;;;0.68;0.63;;;;;;;15.20;55.40;101694.38;5172775;28;20088;-85
2023/05/29 07:42:57;;;;;;;0.68;0.68;;;;;;;15.11;56.39;101699.03;5172373;28;20465;-84
2023/05/29 07:45:48;;;;;;;0.20;0.20;;;;;;;15.33;56.40;101708.94;5175091;28;20055;-83
2023/05/29 07:48:39;;;;;;;0.68;0.68;;;;;;;15.26;55.78;101707.41;5182936;28;20666;-85
2023/05/29 07:51:30;;;;;;;0.52;0.52;;;;;;;15.13;56.46;101700.78;5189268;28;20037;-84
2023/05/29 07:54:22;;;;;;;0.43;0.43;;;;;;;15.32;56.07;101701.06;5187340;28;20504;-84
2023/05/29 07:57:13;;;;;;;0.28;0.28;;;;;;;15.21;56.84;101709.34;5174576;28;20125;-84
2023/05/29 08:00:08;;;;;;;0.40;0.40;;;;;;;15.34;55.99;101712.47;5178668;28;20061;-85
2023/05/29 08:02:59;;;;;;;0.20;0.20;;;;;;;15.52;55.22;101711.88;5184233;28;20034;-85
2023/05/29 08:05:50;;;;;;;0.50;0.50;;;;;;;15.55;55.58;101718.84;5165373;28;20030;-85
2023/05/29 08:08:41;;;;;;;0.30;0.30;;;;;;;15.69;54.91;101713.97;5166716;28;20176;-84
2023/05/29 08:11:32;;;;;;;0.50;0.50;;;;;;;15.60;55.35;101721.34;5169479;28;20723;-85
2023/05/29 08:14:22;;;;;;;0.40;0.40;;;;;;;15.69;55.03;101721.91;5187303;28;20030;-85
2023/05/29 08:17:13;;;;;;;0.77;0.77;;;;;;;15.59;55.73;101723.13;5186460;28;20512;-85
2023/05/29 08:20:05;;;;;;;0.40;0.40;;;;;;;15.69;55.17;101737.78;5188758;28;20044;-85
2023/05/29 08:22:56;;;;;;;0.73;0.73;;;;;;;15.79;55.21;101738.34;5207546;28;20033;-84
2023/05/29 08:25:47;;;;;;;0.35;0.35;;;;;;;15.76;55.15;101727.00;5190214;28;20042;-85
2023/05/29 08:28:39;;;;;;;0.52;0.45;;;;;;;15.79;54.90;101725.13;5193819;28;20030;-85
2023/05/29 08:31:30;;;;;;;0.63;0.63;;;;;;;15.85;55.15;101721.44;5169679;28;20052;-86
2023/05/29 08:34:20;;;;;;;6.97;1.10;;;;;;;15.96;54.93;101721.94;5175524;28;20029;-85
2023/05/29 08:37:12;;;;;;;0.28;0.28;;;;;;;16.02;54.58;101716.44;5184146;28;20696;-86
2023/05/29 08:40:07;;;;;;;0.55;0.55;;;;;;;16.03;54.77;101715.53;5182675;28;20515;-85
2023/05/29 08:43:20;;;;;;;0.50;0.50;;;;;;;16.01;55.28;101729.75;5183846;28;20037;-86
2023/05/29 08:46:14;;;;;;;1.83;1.70;;;;;;;15.96;55.04;101724.59;5183835;28;20041;-86
2023/05/29 08:49:08;;;;;;;0.82;0.82;;;;;;;16.15;54.79;101718.69;5182021;28;20388;-86
2023/05/29 08:52:10;;;;;;;0.43;0.43;;;;;;;16.14;54.19;101727.53;5184201;28;20538;-86
2023/05/29 08:55:01;;;;;;;1.45;0.45;;;;;;;16.22;54.87;101725.50;5170493;28;20440;-85
2023/05/29 08:57:52;;;;;;;1.55;1.30;;;;;;;16.26;54.60;101724.44;5158743;28;20060;-85
2023/05/29 09:00:48;;;;;;;0.55;0.40;;;;;;;16.24;55.24;101728.94;5170917;28;20064;-84
2023/05/29 09:03:39;;;;;;;0.25;0.25;;;;;;;16.31;54.58;101730.47;5166828;28;20042;-86
2023/05/29 09:06:30;;;;;;;0.70;0.70;;;;;;;16.41;54.68;101724.81;5184743;28;20743;-84
2023/05/29 09:09:23;;;;;;;0.32;0.32;;;;;;;16.54;54.26;101726.13;5189657;28;20048;-85
2023/05/29 09:12:14;;;;;;;1.10;1.00;;;;;;;16.60;54.21;101719.75;5171642;28;20030;-85
2023/05/29 09:15:18;;;;;;;0.20;0.20;;;;;;;16.70;54.79;101717.63;5184966;28;20028;-86
2023/05/29 09:18:11;;;;;;;0.95;0.95;;;;;;;16.64;53.32;101716.06;5176200;28;20088;-86
2023/05/29 09:21:08;;;;;;;1.75;1.40;;;;;;;16.73;53.17;101714.88;5169608;28;20033;-86
2023/05/29 09:24:05;;;;;;;1.33;0.90;;;;;;;16.75;53.95;101713.00;5183641;28;20165;-87
2023/05/29 09:26:59;;;;;;;11.20;1.08;;;;;;;16.86;53.28;101721.44;5129574;28;1131631;-86
2023/05/29 09:29:50;;;;;;;;;;;;;;;16.88;53.08;101732.84;5169322;28;20124;-86
2023/05/29 09:32:40;;;;;;;4.68;1.40;;;;;;;16.94;52.61;101729.97;5164782;28;20707;-86
2023/05/29 09:35:39;;;;;;;3.28;1.55;;;;;;;16.93;52.90;101732.69;5169624;28;20033;-85
2023/05/29 09:38:30;;;;;;;0.40;0.40;;;;;;;16.97;52.72;101740.47;5195665;28;20068;-85
2023/05/29 09:41:25;;;;;;;5.78;1.52;;;;;;;17.04;52.93;101745.53;5169687;28;20041;-85
2023/05/29 09:44:16;;;;;;;0.30;0.30;;;;;;;17.14;52.51;101739.81;5186235;28;20096;-86
2023/05/29 09:47:07;;;;;;;0.30;0.30;;;;;;;17.17;53.21;101743.28;5175568;28;20036;-85
2023/05/29 09:50:00;;;;;;;0.50;0.50;;;;;;;17.16;52.76;101734.44;5209476;28;20037;-85
2023/05/29 09:52:53;;;;;;;0.73;0.73;;;;;;;17.21;53.11;101743.13;5186192;28;20064;-85
2023/05/29 09:55:46;;;;;;;0.38;0.38;;;;;;;17.13;52.73;101747.84;5172235;28;20026;-84
2023/05/29 09:58:38;;;;;;;2.28;1.30;;;;;;;17.18;52.70;101743.22;5198645;28;20033;-84
2023/05/29 10:01:29;;;;;;;2.70;0.68;;;;;;;17.30;52.05;101740.09;5165393;28;20100;-84
2023/05/29 10:04:20;;;;;;;0.20;0.20;;;;;;;17.39;53.05;101730.91;5167044;28;20026;-83
2023/05/29 10:07:35;;;;;;;0.40;0.40;;;;;;;17.58;52.20;101730.19;5189364;28;20121;-85
2023/05/29 10:10:26;;;;;;;0.40;0.40;;;;;;;17.44;52.50;101733.38;5186217;28;20017;-84
2023/05/29 10:13:18;;;;;;;0.57;0.57;;;;;;;17.61;51.71;101733.56;5211328;28;20052;-82
2023/05/29 10:16:12;;;;;;;0.40;0.40;;;;;;;17.59;51.74;101721.28;5185498;28;20688;-83
2023/05/29 10:19:09;;;;;;;4.05;0.65;;;;;;;17.61;50.99;101717.66;5171842;28;20033;-84
2023/05/29 10:22:02;;;;;;;0.47;0.47;;;;;;;17.70;51.80;101728.81;5189282;28;20061;-85
2023/05/29 10:24:56;;;;;;;0.30;0.30;;;;;;;17.89;51.94;101716.47;5187602;28;20514;-85
2023/05/29 10:27:48;;;;;;;11.73;0.82;;;;;;;17.77;52.32;101719.66;5184964;28;20041;-85
2023/05/29 10:30:45;;;;;;;0.40;0.40;;;;;;;17.60;51.30;101726.53;5184305;28;20135;-84
2023/05/29 10:34:07;;;;;;;0.40;0.40;;;;;;;17.87;51.89;101726.31;5181184;28;20556;-84
2023/05/29 10:37:10;;;;;;;0.45;0.45;;;;;;;17.92;52.04;101720.81;5185362;28;20512;-86
2023/05/29 10:40:26;;;;;;;;;;;;;;;18.01;51.53;101712.50;5171759;28;20033;-85
2023/05/29 10:43:33;;;;;;;1.90;1.67;;;;;;;18.00;51.65;101724.06;5176765;28;20024;-85
2023/05/29 10:46:43;;;;;;;0.60;0.60;;;;;;;18.07;50.94;101720.19;5191081;28;20049;-84
2023/05/29 10:49:34;;;;;;;0.43;0.43;;;;;;;18.25;51.79;101718.53;5178037;28;20045;-84
2023/05/29 10:52:25;;;;;;;0.60;0.60;;;;;;;18.21;50.61;101714.31;5175406;28;20083;-83
2023/05/29 10:55:16;;;;;;;0.30;0.30;;;;;;;18.28;51.77;101716.69;5187047;28;20634;-85
2023/05/29 10:58:11;;;;;;;2.10;1.52;;;;;;;18.40;50.37;101718.78;5187722;28;20041;-84
2023/05/29 11:01:03;;;;;;;0.20;0.20;;;;;;;18.52;50.69;101712.94;5167834;28;20596;-85
2023/05/29 11:04:17;;;;;;;0.55;0.55;;;;;;;18.44;50.76;101708.88;5182462;28;20038;-84
2023/05/29 11:07:35;;;;;;;0.45;0.45;;;;;;;18.43;49.73;101708.03;5186956;28;20029;-85
2023/05/29 11:10:56;;;;;;;0.52;0.47;;;;;;;18.59;48.93;101705.56;5188369;28;20041;-84
2023/05/29 11:13:55;;;;;;;4.85;1.40;;;;;;;18.55;49.42;101707.47;5172796;28;20030;-84
2023/05/29 11:16:46;;;;;;;0.63;0.63;;;;;;;18.72;49.08;101693.44;5189882;28;20096;-84
2023/05/29 11:19:37;;;;;;;9.98;1.70;;;;;;;18.60;49.63;101693.13;5171714;28;20040;-85
2023/05/29 11:22:53;;;;;;;0.85;0.45;;;;;;;18.75;49.48;101695.06;5194881;28;20037;-85
2023/05/29 11:25:46;;;;;;;1.05;0.98;;;;;;;18.73;49.64;101691.63;5164234;28;20060;-85
2023/05/29 11:28:37;;;;;;;0.68;0.68;;;;;;;18.95;49.47;101682.69;5188168;28;20061;-85
2023/05/29 11:31:31;;;;;;;0.60;0.60;;;;;;;19.06;49.50;101693.66;5182869;28;20385;-85
2023/05/29 11:34:22;;;;;;;;;;;;;;;18.90;49.09;101682.00;5170318;28;20036;-84
2023/05/29 11:37:14;;;;;;;0.35;0.35;;;;;;;19.00;48.45;101683.31;5189830;28;19994;-85
2023/05/29 11:40:08;;;;;;;0.30;0.30;;;;;;;19.11;48.69;101681.03;5169251;28;20029;-84
2023/05/29 11:42:59;;;;;;;0.75;0.75;;;;;;;19.17;47.82;101678.06;5176845;28;20048;-85
2023/05/29 11:45:50;;;;;;;0.80;0.70;;;;;;;19.34;48.04;101684.38;5173475;28;20107;-85
2023/05/29 11:48:47;;;;;;;0.30;0.30;;;;;;;19.50;47.41;101681.81;5182748;28;20033;-85
2023/05/29 11:51:41;;;;;;;1.27;0.75;;;;;;;19.50;47.17;101690.66;5173814;28;20041;-84
2023/05/29 11:54:34;;;;;;;0.50;0.50;;;;;;;19.37;47.27;101683.34;5190229;28;20081;-84
2023/05/29 11:57:25;;;;;;;0.70;0.70;;;;;;;19.54;48.09;101672.72;5183906;28;20036;-85
2023/05/29 12:00:17;;;;;;;0.22;0.22;;;;;;;19.65;47.44;101678.41;5169450;28;20068;-85
2023/05/29 12:03:08;;;;;;;0.20;0.20;;;;;;;19.66;47.38;101665.94;5184267;28;20037;-82
2023/05/29 12:05:58;;;;;;;0.20;0.20;;;;;;;19.69;46.66;101675.56;5182327;28;20030;-85
2023/05/29 12:08:51;;;;;;;3.65;1.73;;;;;;;19.88;46.75;101675.50;5185123;28;20373;-85
2023/05/29 12:11:41;;;;;;;0.77;0.73;;;;;;;19.95;46.51;101672.47;5166743;28;20037;-85
2023/05/29 12:14:33;;;;;;;0.52;0.52;;;;;;;19.98;46.08;101676.78;5186536;28;20044;-84
2023/05/29 12:17:23;;;;;;;1.77;0.40;;;;;;;20.05;45.98;101680.84;5183297;28;20021;-85
2023/05/29 12:20:15;;;;;;;0.35;0.35;;;;;;;20.15;45.95;101675.91;5183852;28;20098;-84
2023/05/29 12:23:06;;;;;;;1.10;1.05;;;;;;;20.20;46.21;101663.19;5169519;28;20546;-85
2023/05/29 12:25:58;;;;;;;0.43;0.43;;;;;;;20.17;45.52;101673.16;5170058;28;20029;-83
2023/05/29 12:28:51;;;;;;;1.70;0.82;;;;;;;20.41;44.34;101682.50;5180780;28;20029;-84
2023/05/29 12:31:42;;;;;;;27.83;2.60;;;;;;;20.44;44.92;101684.16;5198164;28;20240;-84
2023/05/29 12:34:36;;;;;;;4.38;1.17;;;;;;;20.35;45.12;101682.84;5186386;28;20444;-83
2023/05/29 12:37:30;;;;;;;0.88;0.88;;;;;;;20.56;44.88;101679.97;5174454;28;20101;-83
2023/05/29 12:40:22;;;;;;;0.35;0.35;;;;;;;20.73;45.15;101684.41;5168066;28;20033;-83
2023/05/29 12:43:13;;;;;;;0.65;0.55;;;;;;;20.62;44.43;101684.09;5182037;28;20046;-85
2023/05/29 12:46:05;;;;;;;2.47;0.40;;;;;;;20.55;44.23;101678.22;5198990;28;20116;-85
2023/05/29 12:48:56;;;;;;;1.13;0.63;;;;;;;20.70;44.45;101688.06;5181025;28;20026;-85
2023/05/29 12:51:47;;;;;;;1.00;0.95;;;;;;;20.69;44.13;101677.47;5165510;28;20041;-83
2023/05/29 12:54:39;;;;;;;0.38;0.38;;;;;;;20.49;44.66;101684.78;5167942;28;20116;-83
2023/05/29 12:57:29;;;;;;;1.10;1.00;;;;;;;20.70;44.39;101687.22;5200104;28;20053;-85
2023/05/29 13:00:21;;;;;;;0.30;0.30;;;;;;;20.69;42.97;101688.16;5184902;28;20033;-84
2023/05/29 13:03:12;;;;;;;2.03;1.05;;;;;;;20.77;43.18;101682.44;5181409;28;20069;-86
2023/05/29 13:06:03;;;;;;;2.28;1.20;;;;;;;20.83;43.23;101682.09;5177693;28;20072;-85
2023/05/29 13:08:53;;;;;;;1.50;0.85;;;;;;;20.90;44.02;101665.69;5168467;28;20113;-85
2023/05/29 13:11:44;;;;;;;0.47;0.47;;;;;;;21.03;44.04;101673.81;5179015;28;20037;-84
2023/05/29 13:14:35;;;;;;;1.40;0.35;;;;;;;21.31;42.91;101669.59;5177801;28;20073;-84
2023/05/29 13:17:26;;;;;;;0.30;0.30;;;;;;;21.42;42.30;101668.13;5160727;28;20108;-84
2023/05/29 13:20:18;;;;;;;1.33;1.23;;;;;;;21.36;42.35;101664.84;5181909;28;20033;-84
2023/05/29 13:23:09;;;;;;;0.98;0.65;;;;;;;21.53;42.19;101665.66;5182510;28;20517;-84
2023/05/29 13:25:59;;;;;;;1.00;1.00;;;;;;;21.71;41.08;101669.13;5183089;28;20041;-83